TimeEDT,TemperatureF,Dew PointF,Humidity,Sea Level PressureIn,VisibilityMPH,Wind Direction,Wind SpeedMPH,Gust SpeedMPH,PrecipitationIn,Events,Conditions,WindDirDegrees,DateUTC
12:53 AM,71.1,71.1,100,30.16,10.0,North,3.5,-,N/A,,Clear,350,2013-08-22 04:53:00
1:53 AM,71.1,70.0,96,30.15,10.0,Calm,Calm,-,N/A,,Clear,0,2013-08-22 05:53:00
2:53 AM,70.0,70.0,100,30.15,3.0,Calm,Calm,-,N/A,,Clear,0,2013-08-22 06:53:00
3:53 AM,70.0,69.1,97,30.14,6.0,Calm,Calm,-,N/A,,Clear,0,2013-08-22 07:53:00
4:19 AM,69.8,69.8,100,30.15,8.0,Calm,Calm,-,N/A,,Partly Cloudy,0,2013-08-22 08:19:00
4:53 AM,70.0,70.0,100,30.14,10.0,Calm,Calm,-,N/A,,Clear,0,2013-08-22 08:53:00
5:53 AM,71.1,71.1,100,30.13,10.0,Calm,Calm,-,N/A,,Clear,0,2013-08-22 09:53:00
6:53 AM,72.0,71.1,97,30.13,10.0,Calm,Calm,-,0.02,,Clear,0,2013-08-22 10:53:00
7:53 AM,72.0,71.1,97,30.15,5.0,Calm,Calm,-,N/A,,Clear,0,2013-08-22 11:53:00
8:53 AM,75.0,72.0,90,30.16,10.0,Calm,Calm,-,N/A,,Clear,0,2013-08-22 12:53:00
9:53 AM,79.0,71.1,77,30.17,10.0,ENE,3.5,-,N/A,,Scattered Clouds,70,2013-08-22 13:53:00
10:53 AM,81.0,73.0,77,30.17,10.0,ENE,5.8,-,N/A,,Partly Cloudy,60,2013-08-22 14:53:00
11:53 AM,82.0,72.0,71,30.16,10.0,Calm,Calm,-,N/A,,Partly Cloudy,0,2013-08-22 15:53:00
12:23 PM,84.2,71.6,66,30.16,10.0,East,3.5,-,N/A,,Mostly Cloudy,80,2013-08-22 16:23:00
12:31 PM,86.0,71.6,62,30.16,10.0,SE,4.6,-,N/A,,Scattered Clouds,140,2013-08-22 16:31:00
12:53 PM,84.9,71.1,63,30.14,10.0,Variable,3.5,-,N/A,,Clear,0,2013-08-22 16:53:00
1:53 PM,87.1,70.0,57,30.11,10.0,Calm,Calm,-,N/A,,Partly Cloudy,0,2013-08-22 17:53:00
2:53 PM,88.0,70.0,55,30.07,10.0,Calm,Calm,-,N/A,,Scattered Clouds,0,2013-08-22 18:53:00
3:53 PM,89.1,70.0,53,30.06,10.0,Calm,Calm,-,N/A,,Scattered Clouds,0,2013-08-22 19:53:00
4:53 PM,88.0,71.1,57,30.05,10.0,ESE,5.8,-,N/A,,Scattered Clouds,110,2013-08-22 20:53:00
5:53 PM,88.0,71.1,57,30.02,10.0,South,5.8,-,N/A,,Scattered Clouds,170,2013-08-22 21:53:00
6:53 PM,80.1,72.0,76,30.04,10.0,SSW,5.8,16.1,N/A,,Scattered Clouds,210,2013-08-22 22:53:00
7:53 PM,77.0,71.1,82,30.06,10.0,SE,4.6,-,N/A,,Clear,140,2013-08-22 23:53:00
8:53 PM,73.9,72.0,93,30.06,10.0,ESE,3.5,-,N/A,,Clear,120,2013-08-23 00:53:00
9:53 PM,73.0,71.1,93,30.07,10.0,Calm,Calm,-,N/A,,Clear,0,2013-08-23 01:53:00
10:53 PM,72.0,71.1,97,30.06,10.0,Calm,Calm,-,N/A,,Clear,0,2013-08-23 02:53:00
11:53 PM,72.0,71.1,97,30.07,10.0,ESE,3.5,-,N/A,,Clear,120,2013-08-23 03:53:00